OIIS  Semnan  Airport

Semnan, Iran

Add Bookmark
ICAO OIIS
Type Airport
Status Operational
Latitude
35° 35' 27" N
35.591099
Longitude
53° 29' 42" E
53.495098
Local (DST + 5) UTC (GMT + 4)
Feb 9, 2016 04:35 Feb 9, 2016 01:05
Sunrise-Sunset Local UTC
Begin Civil Twilight 06:21 02:51
Sunrise 06:47 03:17
Sunset 05:32 14:02
End Civil Twilight 05:59 14:29
VFR
VFR
MVFR
MVFR
IFR
IFR
LIFR
LIFR
Unknown
Unavailable

Current Weather

METAR Observed VFR
OIIS 082300Z 31006KT 9999 FEW035CB 01/M09 Q1019 Mon, Feb 8, 2016 @ 23:00 UTC
(2 Hours, 5 Minutes ago)
Visual Flight Rules
Wind Visibility Clouds Conditions
310° at 6 knots (11 kph) 10 km or more
  • Few at 3,500 ft AGL
  • No significant weather
Temperatures Readings Precipitation
Current Temp
1°C
34°F
Dewpoint
-9°C
16°F
Humidity 48%
Altimeter 30.09" Hg
Sea Level Pressure 1,019 mb
Field Elevation
1,115 m
3,658 ft
None Recorded
-
-

CheckWX.com is intended as a tool to help pilots better visualize weather data. It is not intended as a substitute for an official weather briefing obtained from a Flight Service Station. CheckWX.com does not meet the FAA requirements for an official pre-flight weather briefing. Therefore, it's important that pilots still call and obtain an official FSS pre-flight weather briefing.

© 2007-2016 CheckWX.com
01:05:26 UTC